Time;durP1;ratioP1;P1;durP2;ratioP2;P2;SDS_P1;SDS_P2;PMS_P1;PMS_P2;Temp;Humidity;BMP_temperature;BMP_pressure;BME280_temperature;BME280_humidity;BME280_pressure;Samples;Min_cycle;Max_cycle;Signal;HPM_P1;HPM_P2
2021/06/28 00:00:05;;;;;;;3.03;2.40;;;22.40;99.90;;;;;;5036752;28;20534;-69
2021/06/28 00:02:32;;;;;;;1.80;1.70;;;22.30;99.90;;;;;;5037127;28;20405;-69
2021/06/28 00:04:58;;;;;;;2.00;1.90;;;22.30;99.90;;;;;;5037048;28;20424;-68
2021/06/28 00:07:24;;;;;;;2.43;1.83;;;22.30;99.90;;;;;;5036643;28;20413;-70
2021/06/28 00:09:49;;;;;;;2.10;1.90;;;22.10;99.90;;;;;;5036627;28;20513;-69
2021/06/28 00:12:15;;;;;;;1.70;1.60;;;22.00;99.90;;;;;;5037062;28;20170;-70
2021/06/28 00:14:43;;;;;;;1.83;1.73;;;21.90;99.90;;;;;;5036947;28;20529;-69
2021/06/28 00:17:09;;;;;;;1.63;1.63;;;21.80;99.90;;;;;;5036422;28;20185;-69
2021/06/28 00:19:35;;;;;;;6.93;2.50;;;21.60;99.90;;;;;;5036370;28;20947;-69
2021/06/28 00:22:00;;;;;;;1.70;1.60;;;21.50;99.90;;;;;;5036870;28;20202;-70
2021/06/28 00:24:26;;;;;;;2.17;1.80;;;21.40;99.90;;;;;;5036504;28;20563;-69
2021/06/28 00:26:51;;;;;;;1.77;1.67;;;21.30;99.90;;;;;;5036591;28;20579;-69
2021/06/28 00:29:17;;;;;;;1.63;1.53;;;21.20;99.90;;;;;;5036007;28;20645;-69
2021/06/28 00:31:43;;;;;;;2.33;2.13;;;21.10;99.90;;;;;;5036754;28;20188;-69
2021/06/28 00:34:08;;;;;;;2.10;1.90;;;21.00;99.90;;;;;;5036052;28;20178;-69
2021/06/28 00:36:34;;;;;;;2.20;1.83;;;20.90;99.90;;;;;;5036566;28;20167;-69
2021/06/28 00:39:00;;;;;;;2.40;2.30;;;20.80;99.90;;;;;;5035862;28;20205;-69
2021/06/28 00:41:25;;;;;;;2.73;2.07;;;20.80;99.90;;;;;;5036157;28;20455;-69
2021/06/28 00:43:51;;;;;;;1.83;1.60;;;20.60;99.90;;;;;;5036264;28;20173;-68
2021/06/28 00:46:17;;;;;;;1.80;1.70;;;20.60;99.90;;;;;;5036406;28;20169;-69
2021/06/28 00:48:42;;;;;;;1.80;1.70;;;20.50;99.90;;;;;;5035478;28;20194;-69
2021/06/28 00:51:08;;;;;;;1.90;1.80;;;20.40;99.90;;;;;;5036128;28;20215;-69
2021/06/28 00:53:34;;;;;;;2.20;2.10;;;20.40;99.90;;;;;;5036161;28;20202;-69
2021/06/28 00:56:09;;;;;;;2.37;2.27;;;20.40;99.90;;;;;;5035517;28;20189;-69
2021/06/28 00:58:40;;;;;;;2.73;2.40;;;20.30;99.90;;;;;;4998197;28;20850;-69
2021/06/28 01:01:07;;;;;;;2.50;2.33;;;20.40;99.90;;;;;;5016222;28;20595;-69
2021/06/28 01:03:32;;;;;;;2.53;2.33;;;20.30;99.90;;;;;;4998647;28;20872;-69
2021/06/28 01:06:00;;;;;;;2.97;2.77;;;20.30;99.90;;;;;;5016256;28;20566;-69
2021/06/28 01:08:26;;;;;;;4.53;2.63;;;20.30;99.90;;;;;;5015532;28;20163;-69
2021/06/28 01:10:52;;;;;;;2.23;2.13;;;20.20;99.90;;;;;;5017265;28;20413;-69
2021/06/28 01:13:17;;;;;;;2.77;2.57;;;20.20;99.90;;;;;;5035870;28;20729;-69
2021/06/28 01:15:44;;;;;;;2.83;2.50;;;20.10;99.90;;;;;;5035742;28;20217;-69
2021/06/28 01:18:09;;;;;;;2.10;2.00;;;20.10;99.90;;;;;;5035249;28;20721;-69
2021/06/28 01:20:36;;;;;;;4.33;2.50;;;20.10;99.90;;;;;;5034942;28;20493;-69
2021/06/28 01:23:11;;;;;;;2.80;2.50;;;20.10;99.90;;;;;;5035246;28;20397;-69
2021/06/28 01:25:37;;;;;;;2.40;2.30;;;20.10;99.90;;;;;;5015606;28;20501;-69
2021/06/28 01:28:03;;;;;;;2.30;2.10;;;20.10;99.90;;;;;;5015305;28;20440;-69
2021/06/28 01:30:29;;;;;;;3.20;2.80;;;20.10;99.90;;;;;;5015619;28;20275;-69
2021/06/28 01:32:56;;;;;;;2.40;2.20;;;20.10;99.90;;;;;;5015600;28;20421;-69
2021/06/28 01:35:22;;;;;;;3.77;2.10;;;20.10;99.90;;;;;;5027300;28;20925;-69
2021/06/28 01:37:48;;;;;;;3.57;2.53;;;20.10;99.90;;;;;;5035140;28;20405;-69
2021/06/28 01:40:15;;;;;;;2.10;1.90;;;20.10;99.90;;;;;;5035365;28;20861;-69
2021/06/28 01:42:46;;;;;;;2.17;2.07;;;20.10;99.90;;;;;;5035482;28;20256;-69
2021/06/28 01:45:18;;;;;;;2.70;2.47;;;20.20;99.90;;;;;;5036112;28;20858;-69
2021/06/28 01:47:44;;;;;;;2.60;2.33;;;20.30;99.90;;;;;;5035447;28;20439;-69
2021/06/28 01:50:12;;;;;;;2.30;2.20;;;20.40;99.90;;;;;;5035816;28;20498;-68
2021/06/28 01:52:38;;;;;;;2.23;2.13;;;20.40;99.90;;;;;;5035607;28;20789;-69
2021/06/28 01:55:07;;;;;;;2.40;2.20;;;20.40;99.90;;;;;;5035719;28;20494;-68
2021/06/28 01:57:40;;;;;;;2.20;2.00;;;20.50;99.90;;;;;;5035141;28;20429;-68
2021/06/28 02:00:06;;;;;;;2.90;2.40;;;20.50;99.90;;;;;;5035579;28;20464;-68
2021/06/28 02:02:32;;;;;;;2.20;2.10;;;20.50;99.90;;;;;;5034947;28;20728;-69
2021/06/28 02:04:58;;;;;;;3.10;1.87;;;20.50;99.90;;;;;;5034479;28;20413;-69
2021/06/28 02:07:24;;;;;;;2.40;2.20;;;20.50;99.90;;;;;;5034021;28;20175;-69
2021/06/28 02:09:51;;;;;;;2.33;2.23;;;20.50;99.90;;;;;;5034501;28;20684;-69
2021/06/28 02:12:16;;;;;;;2.30;2.20;;;20.50;99.90;;;;;;5034788;28;20413;-68
2021/06/28 02:14:42;;;;;;;3.57;2.43;;;20.50;99.90;;;;;;5034726;28;20491;-69
2021/06/28 02:17:08;;;;;;;2.23;1.87;;;20.50;99.90;;;;;;5034056;28;20177;-68
2021/06/28 02:19:33;;;;;;;2.60;2.40;;;20.50;99.90;;;;;;5033876;28;20260;-69
2021/06/28 02:21:59;;;;;;;2.50;2.40;;;20.50;99.90;;;;;;5034469;28;20659;-68
2021/06/28 02:24:25;;;;;;;1.80;1.70;;;20.50;99.90;;;;;;5034393;28;20174;-69
2021/06/28 02:26:51;;;;;;;2.60;2.40;;;20.50;99.90;;;;;;5033933;28;20506;-68
2021/06/28 02:29:16;;;;;;;2.77;2.57;;;20.50;99.90;;;;;;5033789;28;20190;-68
2021/06/28 02:31:43;;;;;;;2.97;2.77;;;20.50;99.90;;;;;;5034306;28;20170;-68
2021/06/28 02:34:09;;;;;;;2.30;2.10;;;20.50;99.90;;;;;;5034327;28;20166;-69
2021/06/28 02:36:35;;;;;;;2.43;2.30;;;20.40;99.90;;;;;;5034082;28;20405;-69
2021/06/28 02:39:03;;;;;;;2.33;2.23;;;20.40;99.90;;;;;;5033736;28;20455;-68
2021/06/28 02:41:29;;;;;;;2.23;2.10;;;20.40;99.90;;;;;;5033666;28;20204;-69
2021/06/28 02:43:56;;;;;;;3.53;2.57;;;20.40;99.90;;;;;;5033914;28;20783;-68
2021/06/28 02:46:22;;;;;;;4.57;2.70;;;20.30;99.90;;;;;;5034055;28;20171;-68
2021/06/28 02:48:48;;;;;;;2.23;2.03;;;20.30;99.90;;;;;;5033551;28;20908;-68
2021/06/28 02:51:16;;;;;;;2.50;2.30;;;20.30;99.90;;;;;;5033667;28;20452;-68
2021/06/28 02:53:42;;;;;;;4.10;2.50;;;20.30;99.90;;;;;;5033927;28;20405;-68
2021/06/28 02:56:19;;;;;;;3.20;2.30;;;20.30;99.90;;;;;;5033803;28;20914;-67
2021/06/28 02:58:45;;;;;;;2.70;2.50;;;20.30;99.90;;;;;;5033367;28;20470;-65
2021/06/28 03:01:12;;;;;;;2.73;2.40;;;20.20;99.90;;;;;;5033648;28;20477;-65
2021/06/28 03:03:37;;;;;;;2.67;2.57;;;20.20;99.90;;;;;;5033803;28;20196;-65
2021/06/28 03:06:03;;;;;;;2.80;2.60;;;20.20;99.90;;;;;;5033305;28;20508;-66
2021/06/28 03:08:29;;;;;;;3.17;2.90;;;20.20;99.90;;;;;;5032917;28;20196;-66
2021/06/28 03:10:55;;;;;;;2.73;2.53;;;20.30;99.90;;;;;;5034004;28;20203;-66
2021/06/28 03:13:20;;;;;;;2.90;2.70;;;20.30;99.90;;;;;;5033426;28;20594;-66
2021/06/28 03:15:46;;;;;;;3.00;2.80;;;20.30;99.90;;;;;;5015921;28;20175;-66
2021/06/28 03:18:12;;;;;;;2.73;2.50;;;20.20;99.90;;;;;;5033078;28;20224;-66
2021/06/28 03:20:37;;;;;;;2.43;2.23;;;20.30;99.90;;;;;;5032674;28;20256;-65
2021/06/28 03:23:04;;;;;;;3.03;2.73;;;20.30;99.90;;;;;;5033229;28;20271;-65
2021/06/28 03:25:30;;;;;;;3.00;2.80;;;20.20;99.90;;;;;;5033521;28;20174;-65
2021/06/28 03:27:56;;;;;;;2.67;2.47;;;20.30;99.90;;;;;;5033163;28;20405;-67
2021/06/28 03:30:21;;;;;;;3.10;2.90;;;20.20;99.90;;;;;;5033261;28;21045;-65
2021/06/28 03:32:47;;;;;;;5.00;2.60;;;20.20;99.90;;;;;;5033080;28;20567;-65
2021/06/28 03:35:13;;;;;;;2.67;2.47;;;20.20;99.90;;;;;;5033426;28;20216;-64
2021/06/28 03:37:40;;;;;;;3.10;2.90;;;20.20;99.90;;;;;;5032955;28;20532;-65
2021/06/28 03:40:08;;;;;;;3.10;2.80;;;20.20;99.90;;;;;;5033018;28;20457;-66
2021/06/28 03:42:37;;;;;;;3.33;3.03;;;20.20;99.90;;;;;;5015506;28;20449;-65
2021/06/28 03:45:05;;;;;;;3.93;3.07;;;20.20;99.90;;;;;;5033396;28;20775;-66
2021/06/28 03:47:31;;;;;;;3.37;3.10;;;20.10;99.90;;;;;;5032619;28;20526;-66
2021/06/28 03:49:56;;;;;;;3.23;2.93;;;20.10;99.90;;;;;;5032757;28;20483;-66
2021/06/28 03:52:22;;;;;;;3.97;3.37;;;20.10;99.90;;;;;;5033357;28;20540;-66
2021/06/28 03:54:48;;;;;;;3.10;2.90;;;20.10;99.90;;;;;;5033266;28;20197;-66
2021/06/28 03:57:13;;;;;;;4.57;3.13;;;20.10;99.90;;;;;;5032631;28;20691;-64
2021/06/28 03:59:39;;;;;;;4.37;3.50;;;20.10;99.90;;;;;;5032684;28;20206;-64
2021/06/28 04:02:05;;;;;;;4.13;2.73;;;20.10;99.90;;;;;;5032893;28;20223;-65
2021/06/28 04:04:31;;;;;;;2.90;2.70;;;20.10;99.90;;;;;;5014877;28;20209;-66
2021/06/28 04:06:56;;;;;;;2.97;2.63;;;20.10;99.90;;;;;;5033032;28;20260;-65
2021/06/28 04:09:22;;;;;;;3.10;2.90;;;20.10;99.90;;;;;;5032703;28;20190;-65
2021/06/28 04:11:47;;;;;;;2.53;2.40;;;20.10;99.90;;;;;;5032956;28;20178;-66
2021/06/28 04:14:13;;;;;;;2.67;2.47;;;20.10;99.90;;;;;;5032126;28;20178;-64
2021/06/28 04:16:39;;;;;;;3.40;2.63;;;20.10;99.90;;;;;;5033016;28;20198;-66
2021/06/28 04:19:04;;;;;;;4.33;2.37;;;20.10;99.90;;;;;;5031609;28;20217;-66
2021/06/28 04:21:32;;;;;;;2.40;2.27;;;20.10;99.90;;;;;;5030144;28;20270;-65
2021/06/28 04:23:57;;;;;;;2.30;2.10;;;20.10;99.90;;;;;;5030694;28;20178;-65
2021/06/28 04:26:23;;;;;;;2.50;2.30;;;20.10;99.90;;;;;;5031879;28;20409;-66
2021/06/28 04:28:48;;;;;;;2.70;2.50;;;20.10;99.90;;;;;;5032013;28;20248;-66
2021/06/28 04:31:14;;;;;;;3.63;3.33;;;20.10;99.90;;;;;;5033824;28;20231;-66
2021/06/28 04:33:40;;;;;;;3.73;3.20;;;20.10;99.90;;;;;;5036038;28;20187;-66
2021/06/28 04:36:05;;;;;;;2.47;2.27;;;20.10;99.90;;;;;;5035064;28;20185;-66
2021/06/28 04:38:31;;;;;;;3.20;2.77;;;20.20;99.90;;;;;;5033793;28;20174;-66
2021/06/28 04:40:57;;;;;;;2.87;2.67;;;20.30;99.90;;;;;;5034476;28;20209;-66
2021/06/28 04:43:22;;;;;;;2.73;2.13;;;20.30;99.90;;;;;;5034581;28;20543;-66
2021/06/28 04:45:48;;;;;;;3.17;2.53;;;20.40;99.90;;;;;;5034585;28;20189;-66
2021/06/28 04:48:17;;;;;;;3.20;3.00;;;20.50;99.90;;;;;;5033832;28;20228;-66
2021/06/28 04:50:42;;;;;;;3.57;2.73;;;20.60;99.90;;;;;;5034835;28;20178;-65
2021/06/28 04:53:08;;;;;;;2.77;2.57;;;20.70;99.90;;;;;;5036076;28;20466;-65
2021/06/28 04:55:34;;;;;;;2.87;2.67;;;20.60;99.90;;;;;;5036127;28;20181;-66
2021/06/28 04:57:59;;;;;;;3.23;3.00;;;20.60;99.90;;;;;;5035280;28;20185;-65
2021/06/28 05:00:26;;;;;;;3.50;2.30;;;20.70;99.90;;;;;;5035641;28;20691;-65
2021/06/28 05:02:52;;;;;;;4.23;2.70;;;20.70;99.90;;;;;;5035941;28;20178;-65
2021/06/28 05:05:18;;;;;;;3.73;3.43;;;20.80;99.90;;;;;;5035811;28;20404;-66
2021/06/28 05:07:44;;;;;;;2.43;2.23;;;20.80;99.90;;;;;;5035442;28;20537;-66
2021/06/28 05:10:12;;;;;;;3.27;2.97;;;20.80;99.90;;;;;;5035636;28;20784;-66
2021/06/28 05:12:37;;;;;;;2.93;2.73;;;20.90;99.90;;;;;;5035529;28;20412;-66
2021/06/28 05:15:05;;;;;;;2.23;2.07;;;20.90;99.90;;;;;;5035565;28;20475;-66
2021/06/28 05:17:31;;;;;;;2.43;2.33;;;20.90;99.90;;;;;;5035569;28;20186;-66
2021/06/28 05:19:57;;;;;;;5.20;2.90;;;20.90;99.90;;;;;;5035161;28;20465;-66
2021/06/28 05:22:22;;;;;;;2.80;2.60;;;21.00;99.90;;;;;;5035686;28;20175;-66
2021/06/28 05:24:48;;;;;;;3.30;2.70;;;21.10;99.90;;;;;;5035443;28;20178;-66
2021/06/28 05:27:14;;;;;;;6.30;3.27;;;21.20;99.90;;;;;;5035035;28;20176;-65
2021/06/28 05:29:39;;;;;;;3.03;2.83;;;21.30;99.90;;;;;;5035444;28;20182;-66
2021/06/28 05:32:05;;;;;;;7.70;4.80;;;21.40;99.90;;;;;;5035624;28;20637;-67
2021/06/28 05:34:31;;;;;;;4.93;4.50;;;21.40;99.90;;;;;;5035108;28;20249;-66
2021/06/28 05:36:57;;;;;;;6.67;5.37;;;21.50;99.90;;;;;;5035382;28;20246;-66
2021/06/28 05:39:22;;;;;;;4.73;3.60;;;21.50;99.90;;;;;;5034772;28;20664;-66
2021/06/28 05:41:48;;;;;;;3.33;2.60;;;21.60;99.90;;;;;;5035103;28;20463;-66
2021/06/28 05:44:14;;;;;;;2.70;2.50;;;21.80;99.90;;;;;;5034555;28;20177;-66
2021/06/28 05:46:39;;;;;;;2.90;2.70;;;22.00;99.90;;;;;;5035147;28;20166;-65
2021/06/28 05:49:05;;;;;;;3.13;2.03;;;22.30;99.90;;;;;;5034828;28;20549;-65
2021/06/28 05:51:31;;;;;;;5.97;3.80;;;22.50;99.90;;;;;;5035171;28;20702;-66
2021/06/28 05:53:57;;;;;;;3.03;2.70;;;22.80;99.90;;;;;;5035080;28;20178;-67
2021/06/28 05:56:22;;;;;;;3.33;2.30;;;23.30;99.90;;;;;;5034865;28;20177;-66
2021/06/28 05:58:48;;;;;;;2.43;2.33;;;23.90;99.90;;;;;;5034022;28;20194;-66
2021/06/28 06:01:15;;;;;;;2.43;2.23;;;24.40;99.90;;;;;;5034692;28;20209;-65
2021/06/28 06:03:41;;;;;;;2.70;1.93;;;24.80;99.90;;;;;;5034601;28;20170;-66
2021/06/28 06:06:07;;;;;;;2.20;2.10;;;25.00;99.90;;;;;;5034793;28;20409;-65
2021/06/28 06:08:35;;;;;;;2.20;2.10;;;25.10;99.90;;;;;;5034315;28;20433;-66
2021/06/28 06:11:01;;;;;;;2.53;2.33;;;25.20;99.90;;;;;;5034590;28;20185;-66
2021/06/28 06:13:28;;;;;;;2.07;1.90;;;25.30;99.90;;;;;;5034693;28;20414;-67
2021/06/28 06:15:55;;;;;;;2.60;2.10;;;25.30;99.90;;;;;;5034321;28;20413;-66
2021/06/28 06:18:21;;;;;;;2.10;2.00;;;25.50;99.90;;;;;;5033644;28;20417;-65
2021/06/28 06:20:48;;;;;;;3.10;2.90;;;25.40;99.90;;;;;;5034203;28;20463;-65
2021/06/28 06:23:15;;;;;;;2.50;1.80;;;25.40;99.90;;;;;;5034395;28;20416;-66
2021/06/28 06:25:43;;;;;;;2.37;2.27;;;25.40;99.90;;;;;;5034238;28;20417;-66
2021/06/28 06:28:10;;;;;;;2.37;2.17;;;25.40;99.90;;;;;;5034008;28;20412;-66
2021/06/28 06:30:36;;;;;;;2.20;2.10;;;25.30;99.90;;;;;;5034271;28;20430;-67
2021/06/28 06:33:03;;;;;;;2.00;1.90;;;25.30;99.90;;;;;;5034014;28;20448;-66
2021/06/28 06:35:29;;;;;;;2.97;2.63;;;25.20;99.90;;;;;;5034121;28;20437;-65
2021/06/28 06:37:56;;;;;;;2.53;2.33;;;25.20;99.90;;;;;;5033508;28;20413;-66
2021/06/28 06:40:24;;;;;;;2.47;2.37;;;25.20;99.90;;;;;;5033933;28;20856;-66
2021/06/28 06:42:51;;;;;;;2.87;2.67;;;25.20;99.90;;;;;;5033825;28;20437;-63
2021/06/28 06:45:17;;;;;;;3.40;2.80;;;25.20;99.90;;;;;;5033976;28;20417;-64
2021/06/28 06:47:43;;;;;;;2.27;2.17;;;25.10;99.90;;;;;;5033415;28;20463;-65
2021/06/28 06:50:11;;;;;;;2.67;2.47;;;25.10;99.90;;;;;;5033572;28;20657;-64
2021/06/28 06:52:38;;;;;;;2.40;2.20;;;25.20;99.90;;;;;;5016365;28;20934;-65
2021/06/28 06:55:07;;;;;;;2.50;2.30;;;25.30;99.90;;;;;;5033645;28;20394;-65
2021/06/28 06:57:34;;;;;;;2.57;2.37;;;25.40;99.90;;;;;;5033194;28;20421;-64
2021/06/28 07:00:00;;;;;;;2.63;2.33;;;25.60;99.90;;;;;;5033389;28;20471;-65
2021/06/28 07:02:25;;;;;;;2.47;2.37;;;25.50;99.90;;;;;;5033440;28;20417;-65
2021/06/28 07:04:51;;;;;;;2.87;2.67;;;25.30;99.90;;;;;;5033408;28;20500;-65
2021/06/28 07:07:16;;;;;;;2.53;2.40;;;25.20;99.90;;;;;;5033220;28;20178;-64
2021/06/28 07:09:43;;;;;;;2.57;2.37;;;25.40;99.90;;;;;;5033453;28;20190;-65
2021/06/28 07:12:09;;;;;;;1.87;1.77;;;25.50;99.90;;;;;;5033606;28;20584;-65
2021/06/28 07:14:35;;;;;;;3.10;2.80;;;25.60;99.90;;;;;;5032925;28;20926;-66
2021/06/28 07:17:01;;;;;;;2.90;2.70;;;25.80;99.90;;;;;;5033111;28;20437;-65
2021/06/28 07:19:27;;;;;;;3.03;2.73;;;26.10;99.90;;;;;;5032796;28;20480;-65
2021/06/28 07:21:52;;;;;;;3.83;3.50;;;26.30;99.90;;;;;;5033012;28;20985;-65
2021/06/28 07:24:18;;;;;;;4.80;2.80;;;26.50;99.90;;;;;;5033220;28;20547;-65
2021/06/28 07:26:44;;;;;;;3.40;3.10;;;26.70;99.90;;;;;;5033137;28;20512;-65
2021/06/28 07:29:10;;;;;;;2.30;2.20;;;27.00;99.90;;;;;;5032563;28;20672;-65
2021/06/28 07:31:36;;;;;;;2.60;2.40;;;27.10;99.90;;;;;;5015457;28;20420;-66
2021/06/28 07:34:02;;;;;;;2.60;2.40;;;27.60;99.50;;;;;;5030850;28;20923;-65
2021/06/28 07:36:27;;;;;;;2.47;2.37;;;28.10;98.80;;;;;;5032892;28;20175;-66
2021/06/28 07:38:53;;;;;;;2.70;2.50;;;28.60;97.80;;;;;;5032393;28;20194;-67
2021/06/28 07:41:19;;;;;;;2.90;2.70;;;29.10;96.50;;;;;;5033182;28;20212;-68
2021/06/28 07:43:45;;;;;;;2.53;2.43;;;29.80;95.90;;;;;;5015150;28;20170;-69
2021/06/28 07:46:11;;;;;;;2.40;2.30;;;30.50;94.50;;;;;;5032624;28;20170;-69
2021/06/28 07:48:36;;;;;;;2.43;2.33;;;31.20;93.70;;;;;;5032506;28;20450;-67
2021/06/28 07:51:02;;;;;;;3.60;2.27;;;32.10;92.70;;;;;;5032561;28;20179;-68
2021/06/28 07:53:28;;;;;;;2.87;2.67;;;33.20;90.30;;;;;;5032794;28;20179;-68
2021/06/28 07:55:54;;;;;;;3.10;2.90;;;34.10;87.40;;;;;;5033246;28;20389;-68
2021/06/28 07:58:20;;;;;;;3.23;2.90;;;34.60;84.20;;;;;;5014642;28;20190;-69
2021/06/28 08:00:45;;;;;;;2.70;2.60;;;35.20;80.00;;;;;;5032351;28;20264;-68
2021/06/28 08:03:11;;;;;;;3.00;2.77;;;35.60;79.00;;;;;;5032853;28;20249;-68
2021/06/28 08:05:39;;;;;;;3.13;2.93;;;36.20;76.20;;;;;;5033623;28;20177;-69
2021/06/28 08:08:05;;;;;;;2.77;2.67;;;36.50;74.90;;;;;;5035773;28;20174;-68
2021/06/28 08:10:32;;;;;;;2.73;2.53;;;36.40;72.50;;;;;;5036634;28;20937;-69
2021/06/28 08:12:58;;;;;;;3.20;3.00;;;36.90;72.10;;;;;;5036860;28;20401;-69
2021/06/28 08:15:23;;;;;;;4.60;4.30;;;37.30;68.70;;;;;;5036621;28;20772;-69
2021/06/28 08:17:50;;;;;;;2.63;2.43;;;37.80;65.10;;;;;;5035968;28;20186;-67
2021/06/28 08:20:19;;;;;;;2.50;2.40;;;37.70;65.80;;;;;;5036248;28;20289;-68
2021/06/28 08:22:46;;;;;;;2.80;2.60;;;37.80;65.30;;;;;;5035049;28;20428;-70
2021/06/28 08:25:13;;;;;;;2.73;2.63;;;38.00;64.50;;;;;;5036516;28;20409;-68
2021/06/28 08:27:39;;;;;;;3.23;3.07;;;38.60;62.20;;;;;;5035987;28;20401;-68
2021/06/28 08:30:07;;;;;;;2.77;2.67;;;38.60;59.50;;;;;;5036602;28;20456;-66
2021/06/28 08:32:33;;;;;;;2.50;2.40;;;38.40;58.80;;;;;;5018482;28;20193;-68
2021/06/28 08:34:59;;;;;;;3.27;3.07;;;38.40;59.00;;;;;;5035858;28;20413;-68
2021/06/28 08:37:26;;;;;;;2.50;2.40;;;38.90;58.90;;;;;;5035129;28;20549;-68
2021/06/28 08:39:52;;;;;;;2.90;2.80;;;39.10;59.30;;;;;;5036138;28;20507;-68
2021/06/28 08:42:18;;;;;;;2.87;2.67;;;39.20;59.10;;;;;;5035800;28;20504;-68
2021/06/28 08:44:45;;;;;;;2.40;2.30;;;38.70;58.10;;;;;;5036084;28;20174;-66
2021/06/28 08:47:12;;;;;;;2.50;2.40;;;38.20;58.20;;;;;;5035062;28;20516;-68
2021/06/28 08:49:41;;;;;;;3.10;2.90;;;38.10;58.00;;;;;;5036001;28;20417;-69
2021/06/28 08:52:07;;;;;;;2.97;2.77;;;38.30;58.50;;;;;;5018129;28;20424;-68
2021/06/28 08:54:33;;;;;;;3.07;2.90;;;38.40;58.50;;;;;;5035738;28;20522;-68
2021/06/28 08:56:59;;;;;;;2.70;2.60;;;38.80;58.10;;;;;;5035613;28;21622;-67
2021/06/28 08:59:25;;;;;;;3.03;2.90;;;38.70;58.00;;;;;;5035720;28;20565;-68
2021/06/28 09:01:51;;;;;;;2.50;2.40;;;38.40;58.20;;;;;;5035461;28;20436;-67
2021/06/28 09:04:17;;;;;;;3.43;3.23;;;37.90;57.40;;;;;;5036093;28;20175;-69
2021/06/28 09:06:44;;;;;;;3.23;3.03;;;38.00;57.90;;;;;;5035717;28;20730;-67
2021/06/28 09:09:13;;;;;;;2.70;2.60;;;38.00;58.80;;;;;;5035147;28;20437;-68
2021/06/28 09:11:42;;;;;;;3.30;3.10;;;38.00;58.20;;;;;;5017541;28;20468;-66
2021/06/28 09:14:10;;;;;;;3.47;3.17;;;38.00;58.00;;;;;;5035642;28;20420;-66
2021/06/28 09:16:37;;;;;;;3.10;2.90;;;38.00;58.30;;;;;;5035558;28;20424;-68
2021/06/28 09:19:05;;;;;;;3.70;3.50;;;38.30;58.40;;;;;;5035177;28;20453;-66
2021/06/28 09:21:46;;;;;;;2.97;2.87;;;38.80;56.30;;;;;;5034460;28;20932;-67
2021/06/28 09:24:36;;;;;;;3.40;3.20;;;39.00;55.70;;;;;;5034742;28;20507;-67
2021/06/28 09:27:11;;;;;;;3.50;3.30;;;39.10;56.90;;;;;;5035233;28;20523;-67
2021/06/28 09:29:38;;;;;;;2.87;2.70;;;39.10;55.10;;;;;;5035455;28;20515;-68
2021/06/28 09:32:15;;;;;;;3.50;3.30;;;39.30;55.50;;;;;;5035335;28;20774;-67
2021/06/28 09:34:45;;;;;;;3.40;3.20;;;39.40;54.60;;;;;;5035262;28;20443;-68
2021/06/28 09:37:28;;;;;;;3.30;3.10;;;39.20;56.30;;;;;;5035015;28;20478;-67
2021/06/28 09:39:57;;;;;;;2.83;2.73;;;39.40;55.70;;;;;;5034244;28;20448;-68
2021/06/28 09:42:26;;;;;;;3.10;2.90;;;39.60;56.40;;;;;;5035579;28;20409;-68
2021/06/28 09:44:51;;;;;;;2.70;2.60;;;40.00;56.50;;;;;;5035534;28;20429;-69
2021/06/28 09:47:19;;;;;;;3.07;2.93;;;40.20;54.40;;;;;;5034472;28;21058;-68
2021/06/28 09:50:12;;;;;;;2.93;2.83;;;40.20;55.60;;;;;;5034208;28;20194;-69
2021/06/28 09:52:42;;;;;;;3.47;3.27;;;40.10;54.80;;;;;;5025841;28;20839;-68
2021/06/28 09:55:21;;;;;;;2.97;2.87;;;40.00;55.60;;;;;;5017424;28;20891;-68
2021/06/28 09:58:25;;;;;;;3.17;2.97;;;39.80;54.30;;;;;;5034177;28;20412;-66
2021/06/28 10:00:54;;;;;;;3.37;3.10;;;40.10;53.40;;;;;;5034896;28;20455;-67
2021/06/28 10:03:31;;;;;;;3.60;3.40;;;40.90;54.20;;;;;;5034557;28;20455;-67
2021/06/28 10:06:04;;;;;;;2.80;2.70;;;41.30;52.90;;;;;;5034934;28;20486;-68
2021/06/28 10:08:38;;;;;;;2.83;2.73;;;41.20;51.10;;;;;;5034085;28;20502;-68
2021/06/28 10:11:24;;;;;;;3.33;3.20;;;41.00;50.90;;;;;;5034692;28;20540;-68
2021/06/28 10:13:59;;;;;;;3.50;3.27;;;41.20;52.70;;;;;;5014990;28;20526;-68
2021/06/28 10:16:27;;;;;;;4.30;3.30;;;41.40;51.90;;;;;;5015199;28;20417;-68
2021/06/28 10:18:54;;;;;;;3.63;3.43;;;41.30;50.90;;;;;;5013906;28;20449;-68
2021/06/28 10:21:20;;;;;;;3.17;3.07;;;40.60;51.20;;;;;;5014659;28;20455;-67
2021/06/28 10:23:47;;;;;;;3.37;3.27;;;40.60;51.10;;;;;;5033445;28;20417;-67
2021/06/28 10:26:12;;;;;;;2.80;2.70;;;40.20;51.00;;;;;;5034415;28;20443;-67
2021/06/28 10:28:39;;;;;;;2.80;2.70;;;39.90;52.00;;;;;;5033083;28;20441;-67
2021/06/28 10:31:09;;;;;;;2.77;2.67;;;39.50;52.10;;;;;;5034246;28;20220;-68
2021/06/28 10:33:37;;;;;;;2.70;2.60;;;39.40;52.30;;;;;;5034148;28;20480;-68
2021/06/28 10:36:09;;;;;;;3.07;2.97;;;39.30;52.20;;;;;;5034349;28;20396;-68
2021/06/28 10:38:54;;;;;;;2.90;2.80;;;39.30;52.40;;;;;;5033451;28;20468;-68
2021/06/28 10:41:38;;;;;;;4.10;3.10;;;39.30;53.60;;;;;;5034467;28;20405;-66
2021/06/28 10:44:12;;;;;;;3.27;3.07;;;38.80;53.30;;;;;;5033278;28;20428;-66
2021/06/28 10:46:42;;;;;;;3.07;2.87;;;38.60;53.80;;;;;;5033766;28;20428;-68
2021/06/28 10:49:08;;;;;;;2.80;2.70;;;38.50;55.10;;;;;;5033585;28;20429;-68
2021/06/28 10:51:41;;;;;;;3.30;3.10;;;38.50;52.60;;;;;;5033476;28;20460;-69
2021/06/28 10:54:07;;;;;;;2.87;2.77;;;38.60;52.00;;;;;;5033719;28;20413;-68
2021/06/28 10:56:34;;;;;;;3.07;2.97;;;38.60;51.40;;;;;;5032971;28;20910;-68
2021/06/28 10:59:05;;;;;;;2.60;2.50;;;38.40;50.80;;;;;;5032931;28;20927;-68
2021/06/28 11:01:39;;;;;;;2.83;2.63;;;38.20;51.10;;;;;;5033107;28;20436;-69
2021/06/28 11:04:08;;;;;;;3.00;2.80;;;37.30;51.90;;;;;;5033768;28;20424;-68
2021/06/28 11:06:34;;;;;;;3.27;3.07;;;36.90;54.30;;;;;;5032613;28;20944;-65
2021/06/28 11:09:03;;;;;;;2.73;2.63;;;36.80;54.50;;;;;;5047741;28;20950;-67
2021/06/28 11:11:46;;;;;;;2.70;2.60;;;36.70;54.30;;;;;;5032902;28;21014;-69
2021/06/28 11:14:18;;;;;;;2.93;2.80;;;36.60;54.10;;;;;;5032517;28;20402;-67
2021/06/28 11:16:59;;;;;;;2.80;2.60;;;36.20;54.40;;;;;;5022951;28;20459;-70
2021/06/28 11:19:45;;;;;;;2.73;2.63;;;35.70;57.60;;;;;;5016947;28;20473;-70
2021/06/28 11:22:32;;;;;;;2.83;2.63;;;34.70;56.50;;;;;;5025017;28;20411;-68
2021/06/28 11:25:13;;;;;;;2.83;2.67;;;34.00;58.30;;;;;;5025387;28;20394;-68
2021/06/28 11:27:42;;;;;;;2.77;2.57;;;33.40;60.70;;;;;;5020914;28;20388;-80
2021/06/28 11:30:20;;;;;;;3.10;2.90;;;33.00;62.20;;;;;;5011327;28;20439;-73
2021/06/28 11:33:16;;;;;;;3.83;2.80;;;32.90;64.30;;;;;;5008267;28;21316;-71
2021/06/28 11:35:45;;;;;;;2.97;2.77;;;32.60;64.80;;;;;;5009964;28;20396;-71
2021/06/28 11:38:20;;;;;;;2.93;2.73;;;32.50;66.00;;;;;;5029347;28;20950;-68
2021/06/28 11:40:52;;;;;;;2.50;2.40;;;32.30;63.40;;;;;;5026539;28;20490;-67
2021/06/28 11:43:43;;;;;;;3.03;2.83;;;32.30;64.80;;;;;;5011633;28;20413;-72
2021/06/28 11:46:11;;;;;;;3.40;3.10;;;32.20;68.40;;;;;;5026473;28;20425;-73
2021/06/28 11:48:48;;;;;;;2.83;2.63;;;32.20;66.20;;;;;;5005751;28;20445;-78
2021/06/28 11:51:17;;;;;;;3.50;3.20;;;32.20;67.00;;;;;;5027078;28;20545;-71
2021/06/28 11:54:01;;;;;;;2.60;2.50;;;32.20;66.30;;;;;;5026520;28;20421;-69
2021/06/28 11:56:34;;;;;;;2.80;2.60;;;32.20;66.00;;;;;;5027182;28;20499;-70
2021/06/28 11:59:02;;;;;;;3.20;3.00;;;32.00;66.00;;;;;;5027694;28;20423;-69
2021/06/28 12:01:36;;;;;;;3.10;2.90;;;31.80;66.60;;;;;;5022462;28;20389;-69
2021/06/28 12:04:04;;;;;;;3.23;3.03;;;31.70;66.90;;;;;;5021512;28;20432;-69
2021/06/28 12:06:40;;;;;;;3.30;3.00;;;31.50;67.10;;;;;;5026566;28;20392;-68
2021/06/28 12:09:13;;;;;;;3.17;2.97;;;31.50;67.60;;;;;;5021169;28;20444;-69
2021/06/28 12:11:54;;;;;;;3.70;3.33;;;31.40;67.60;;;;;;5030861;28;20464;-69
2021/06/28 12:14:53;;;;;;;3.03;2.83;;;31.50;69.30;;;;;;5030811;28;20478;-70
2021/06/28 12:17:24;;;;;;;2.80;2.60;;;31.40;68.90;;;;;;5012026;28;20405;-69
2021/06/28 12:20:09;;;;;;;3.80;3.50;;;31.30;68.20;;;;;;5010865;28;20460;-68
2021/06/28 12:22:41;;;;;;;2.73;2.53;;;31.40;68.50;;;;;;5016999;28;20448;-68
2021/06/28 12:25:07;;;;;;;3.00;2.60;;;31.40;69.10;;;;;;5028058;28;20424;-69
2021/06/28 12:27:35;;;;;;;2.53;2.43;;;31.30;70.60;;;;;;5022974;28;20515;-69
2021/06/28 12:30:09;;;;;;;2.93;2.73;;;31.40;71.70;;;;;;5027962;28;20457;-69
2021/06/28 12:32:41;;;;;;;3.87;3.57;;;31.70;72.10;;;;;;5027288;28;20417;-67
2021/06/28 12:35:10;;;;;;;3.50;3.20;;;31.80;68.70;;;;;;5026101;28;20432;-67
2021/06/28 12:37:40;;;;;;;3.00;2.80;;;31.80;68.70;;;;;;5027603;28;20455;-66
2021/06/28 12:40:20;;;;;;;3.10;2.90;;;31.80;72.10;;;;;;5027962;28;20424;-64
2021/06/28 12:42:48;;;;;;;3.13;2.93;;;31.70;70.10;;;;;;5022497;28;20417;-66
2021/06/28 12:45:15;;;;;;;3.13;2.93;;;31.70;71.60;;;;;;5032259;28;20428;-64
2021/06/28 12:47:45;;;;;;;3.43;3.23;;;31.60;71.40;;;;;;5024264;28;20420;-66
2021/06/28 12:50:20;;;;;;;3.17;2.97;;;31.30;71.20;;;;;;5027102;28;20435;-65
2021/06/28 12:52:45;;;;;;;3.20;2.90;;;31.10;73.00;;;;;;5024882;28;20391;-66